Terminal Aerodrome Forecast
Issued by NWS

Home | Current Version | Previous Version | Text Only | Print | Product List | Glossary On
Versions: 1 2 3 4 5 6 7 8 9 10 11 12 13 14 15 16 17 18 19 20 21 22 23 24
000
FTUS45 KPSR 271506 AAA
TAFPHX
TAF AMD
KPHX 271506Z 2715/2812 11005KT P6SM SCT070 BKN250
      TEMPO 2715/2718 BKN070
     FM271800 16008KT P6SM BKN060 BKN180
     FM272100 21008KT P6SM VCSH BKN060 BKN100
     FM272300 24008KT P6SM -RA FEW030 BKN050 OVC070
      TEMPO 2802/2806 VRB05KT 5SM RA BR FEW020 OVC030=

USA.gov is the U.S. government's official web portal to all federal, state and local government web resources and services.